createdAt,value
2023-05-21T00:02:17.675Z,98885.69
2023-05-21T00:04:45.625Z,98881.72
2023-05-21T00:07:21.739Z,98875.03
2023-05-21T00:10:04.055Z,98874.16
2023-05-21T00:12:50.929Z,98868.31
2023-05-21T00:15:39.944Z,98871.00
2023-05-21T00:18:07.150Z,98867.03
2023-05-21T00:20:34.144Z,98864.94
2023-05-21T00:23:04.734Z,98873.06
2023-05-21T00:25:31.849Z,98867.63
2023-05-21T00:27:58.867Z,98866.81
2023-05-21T00:30:25.945Z,98854.47
2023-05-21T00:32:52.957Z,98860.47
2023-05-21T00:35:19.990Z,98860.06
2023-05-21T00:37:47.933Z,98868.63
2023-05-21T00:40:15.608Z,98863.38
2023-05-21T00:42:42.599Z,98859.38
2023-05-21T00:45:09.858Z,98861.44
2023-05-21T00:47:37.406Z,98858.31
2023-05-21T00:50:05.376Z,98852.88
2023-05-21T00:52:32.446Z,98863.13
2023-05-21T00:54:59.426Z,98843.84
2023-05-21T00:57:27.610Z,98851.59
2023-05-21T00:59:54.588Z,98851.13
2023-05-21T01:02:24.538Z,98844.66
2023-05-21T01:05:09.129Z,98848.81
2023-05-21T01:07:55.849Z,98845.03
2023-05-21T01:10:44.333Z,98851.50
2023-05-21T01:13:32.383Z,98844.78
2023-05-21T01:16:23.325Z,98841.84
2023-05-21T01:18:50.457Z,98838.47
2023-05-21T01:21:19.279Z,98833.44
2023-05-21T01:23:46.261Z,98836.81
2023-05-21T01:26:13.301Z,98825.28
2023-05-21T01:28:40.312Z,98827.34
2023-05-21T01:31:21.325Z,98830.84
2023-05-21T01:33:52.425Z,98829.59
2023-05-21T01:36:27.016Z,98834.59
2023-05-21T01:39:34.173Z,98829.53
2023-05-21T01:42:04.338Z,98828.47
2023-05-21T01:44:32.724Z,98826.59
2023-05-21T01:47:00.294Z,98827.44
2023-05-21T01:49:27.458Z,98820.78
2023-05-21T01:51:54.740Z,98827.06
2023-05-21T01:54:22.373Z,98819.31
2023-05-21T01:56:49.951Z,98809.88
2023-05-21T01:59:17.616Z,98816.16
2023-05-21T02:01:44.636Z,98816.56
2023-05-21T02:04:11.758Z,98814.47
2023-05-21T02:06:39.823Z,98818.22
2023-05-21T02:09:06.804Z,98814.28
2023-05-21T02:11:35.364Z,98813.00
2023-05-21T02:14:04.128Z,98798.56
2023-05-21T02:16:31.137Z,98802.94
2023-05-21T02:18:58.143Z,98805.66
2023-05-21T02:21:25.161Z,98809.44
2023-05-21T02:23:52.074Z,98806.50
2023-05-21T02:26:19.139Z,98798.56
2023-05-21T02:28:46.055Z,98800.44
2023-05-21T02:31:12.998Z,98799.84
2023-05-21T02:33:42.897Z,98798.38
2023-05-21T02:36:13.369Z,98797.97
2023-05-21T02:38:43.993Z,98792.72
2023-05-21T02:41:12.181Z,98790.38
2023-05-21T02:43:39.186Z,98789.78
2023-05-21T02:46:07.830Z,98783.91
2023-05-21T02:48:34.885Z,98776.34
2023-05-21T02:51:01.858Z,98778.91
2023-05-21T02:53:28.866Z,98778.50
2023-05-21T02:55:56.674Z,98776.78
2023-05-21T02:58:25.486Z,98781.63
2023-05-21T03:00:53.826Z,98779.78
2023-05-21T03:03:21.067Z,98780.44
2023-05-21T03:05:48.622Z,98778.56
2023-05-21T03:08:15.615Z,98787.78
2023-05-21T03:10:42.587Z,98783.56
2023-05-21T03:13:10.002Z,98781.50
2023-05-21T03:15:39.583Z,98784.19
2023-05-21T03:18:06.761Z,98781.88
2023-05-21T03:20:33.823Z,98781.06
2023-05-21T03:23:04.381Z,98786.44
2023-05-21T03:25:31.424Z,98788.50
2023-05-21T03:27:58.356Z,98795.41
2023-05-21T03:30:25.348Z,98799.34
2023-05-21T03:32:52.439Z,98797.06
2023-05-21T03:35:19.718Z,98796.88
2023-05-21T03:37:46.738Z,98796.88
2023-05-21T03:40:14.219Z,98792.69
2023-05-21T03:42:41.252Z,98792.44
2023-05-21T03:45:08.607Z,98794.13
2023-05-21T03:47:36.514Z,98792.22
2023-05-21T03:50:03.869Z,98790.09
2023-05-21T03:52:30.856Z,98784.66
2023-05-21T03:54:57.789Z,98793.00
2023-05-21T03:57:24.778Z,98791.31
2023-05-21T03:59:51.782Z,98793.06
2023-05-21T04:02:18.793Z,98784.59
2023-05-21T04:04:46.956Z,98781.28
2023-05-21T04:07:15.636Z,98782.28
2023-05-21T04:09:42.652Z,98777.25
2023-05-21T04:12:09.626Z,98771.59
2023-05-21T04:14:37.900Z,98780.50
2023-05-21T04:17:05.660Z,98776.28
2023-05-21T04:19:33.023Z,98790.44
2023-05-21T04:22:00.114Z,98787.00
2023-05-21T04:24:27.097Z,98785.88
2023-05-21T04:26:54.029Z,98787.03
2023-05-21T04:29:21.594Z,98791.34
2023-05-21T04:31:49.952Z,98790.75
2023-05-21T04:34:20.152Z,98790.25
2023-05-21T04:36:47.483Z,98795.00
2023-05-21T04:39:14.985Z,98798.06
2023-05-21T04:41:41.928Z,98800.66
2023-05-21T04:44:09.434Z,98799.59
2023-05-21T04:46:36.539Z,98787.13
2023-05-21T04:49:03.961Z,98801.22
2023-05-21T04:51:31.575Z,98801.81
2023-05-21T04:53:58.877Z,98797.78
2023-05-21T04:56:28.729Z,98799.63
2023-05-21T04:58:56.222Z,98794.63
2023-05-21T05:01:23.958Z,98794.59
2023-05-21T05:03:51.572Z,98794.31
2023-05-21T05:06:18.612Z,98795.03
2023-05-21T05:08:46.529Z,98790.78
2023-05-21T05:11:14.014Z,98797.09
2023-05-21T05:13:44.438Z,98790.06
2023-05-21T05:16:11.578Z,98797.50
2023-05-21T05:18:38.591Z,98794.59
2023-05-21T05:21:05.674Z,98795.47
2023-05-21T05:23:32.639Z,98794.53
2023-05-21T05:25:59.605Z,98798.69
2023-05-21T05:28:26.519Z,98792.94
2023-05-21T05:30:53.490Z,98802.56
2023-05-21T05:33:20.671Z,98799.13
2023-05-21T05:35:47.726Z,98805.16
2023-05-21T05:38:14.707Z,98787.53
2023-05-21T05:40:41.718Z,98795.09
2023-05-21T05:43:08.900Z,98786.00
2023-05-21T05:45:36.007Z,98799.06
2023-05-21T05:48:03.341Z,98800.97
2023-05-21T05:50:30.433Z,98797.88
2023-05-21T05:52:57.450Z,98790.47
2023-05-21T05:55:25.456Z,98791.22
2023-05-21T05:57:52.558Z,98791.47
2023-05-21T06:00:20.261Z,98783.34
2023-05-21T06:02:48.446Z,98787.78
2023-05-21T06:05:15.686Z,98787.59
2023-05-21T06:07:42.668Z,98788.91
2023-05-21T06:10:10.349Z,98788.69
2023-05-21T06:12:37.391Z,98778.38
2023-05-21T06:15:05.393Z,98790.94
2023-05-21T06:17:32.431Z,98790.66
2023-05-21T06:19:59.491Z,98785.25
2023-05-21T06:22:26.409Z,98784.44
2023-05-21T06:24:53.665Z,98778.66
2023-05-21T06:27:20.813Z,98774.22
2023-05-21T06:29:47.794Z,98771.44
2023-05-21T06:32:14.769Z,98770.41
2023-05-21T06:34:41.929Z,98766.19
2023-05-21T06:37:08.823Z,98764.81
2023-05-21T06:39:35.792Z,98762.56
2023-05-21T06:42:02.734Z,98767.47
2023-05-21T06:44:29.759Z,98771.84
2023-05-21T06:46:56.736Z,98766.66
2023-05-21T06:49:23.868Z,98755.88
2023-05-21T06:51:50.850Z,98754.97
2023-05-21T06:54:17.861Z,98760.75
2023-05-21T06:56:44.768Z,98753.38
2023-05-21T06:59:11.680Z,98745.53
2023-05-21T07:01:42.788Z,98750.16
2023-05-21T07:04:10.403Z,98749.47
2023-05-21T07:06:38.306Z,98751.59
2023-05-21T07:09:06.346Z,98750.94
2023-05-21T07:11:33.532Z,98742.94
2023-05-21T07:14:04.245Z,98747.38
2023-05-21T07:16:31.185Z,98743.00
2023-05-21T07:18:58.258Z,98739.53
2023-05-21T07:21:25.286Z,98739.59
2023-05-21T07:23:52.278Z,98733.16
2023-05-21T07:26:19.282Z,98740.53
2023-05-21T07:28:46.235Z,98734.34
2023-05-21T07:31:13.401Z,98736.97
2023-05-21T07:33:40.455Z,98731.13
2023-05-21T07:36:07.670Z,98726.13
2023-05-21T07:38:34.882Z,98735.06
2023-05-21T07:41:01.883Z,98726.06
2023-05-21T07:43:28.884Z,98727.63
2023-05-21T07:45:55.986Z,98721.28
2023-05-21T07:48:23.014Z,98726.19
2023-05-21T07:50:50.416Z,98721.06
2023-05-21T07:53:17.332Z,98725.94
2023-05-21T07:55:48.102Z,98707.84
2023-05-21T07:58:18.990Z,98720.16
2023-05-21T08:00:48.125Z,98725.75
2023-05-21T08:03:18.574Z,98722.53
2023-05-21T08:05:49.514Z,98715.31
2023-05-21T08:08:20.267Z,98708.84
2023-05-21T08:10:48.067Z,98713.84
2023-05-21T08:13:16.777Z,98716.78
2023-05-21T08:15:44.029Z,98706.22
2023-05-21T08:18:12.112Z,98717.03
2023-05-21T08:20:39.327Z,98712.53
2023-05-21T08:23:06.314Z,98720.56
2023-05-21T08:25:33.447Z,98734.59
2023-05-21T08:28:00.420Z,98715.66
2023-05-21T08:30:27.380Z,98725.84
2023-05-21T08:32:55.352Z,98728.34
2023-05-21T08:35:22.486Z,98720.16
2023-05-21T08:37:49.483Z,98716.63
2023-05-21T08:40:16.502Z,98714.47
2023-05-21T08:42:45.896Z,98706.84
2023-05-21T08:45:14.562Z,98715.44
2023-05-21T08:47:44.196Z,98713.34
2023-05-21T08:50:19.718Z,98707.59
2023-05-21T08:52:46.656Z,98720.41
2023-05-21T08:55:14.381Z,98722.13
2023-05-21T08:57:44.232Z,98716.13
2023-05-21T09:00:12.093Z,98712.13
2023-05-21T09:02:43.943Z,98701.88
2023-05-21T09:05:11.561Z,98701.78
2023-05-21T09:07:47.425Z,98706.16
2023-05-21T09:10:15.115Z,98709.50
2023-05-21T09:12:42.410Z,98713.06
2023-05-21T09:15:10.112Z,98714.75
2023-05-21T09:17:37.267Z,98713.69
2023-05-21T09:20:16.670Z,98715.94
2023-05-21T09:22:49.591Z,98711.25
2023-05-21T09:25:19.263Z,98711.63
2023-05-21T09:27:46.217Z,98709.44
2023-05-21T09:30:16.195Z,98702.53
2023-05-21T09:32:45.846Z,98714.06
2023-05-21T09:35:15.935Z,98706.25
2023-05-21T09:37:45.341Z,98711.09
2023-05-21T09:40:20.665Z,98712.03
2023-05-21T09:42:52.183Z,98709.63
2023-05-21T09:45:26.214Z,98713.09
2023-05-21T09:47:54.883Z,98707.69
2023-05-21T09:50:28.596Z,98705.66
2023-05-21T09:52:56.429Z,98702.91
2023-05-21T09:55:24.514Z,98700.72
2023-05-21T09:57:52.949Z,98700.44
2023-05-21T10:00:25.430Z,98703.44
2023-05-21T10:02:57.620Z,98694.72
2023-05-21T10:05:29.883Z,98696.59
2023-05-21T10:08:05.040Z,98692.13
2023-05-21T10:10:32.987Z,98690.38
2023-05-21T10:13:09.652Z,98681.03
2023-05-21T10:15:44.375Z,98687.47
2023-05-21T10:18:13.361Z,98681.88
2023-05-21T10:20:40.688Z,98687.75
2023-05-21T10:23:08.529Z,98674.94
2023-05-21T10:25:36.496Z,98680.81
2023-05-21T10:28:03.676Z,98683.00
2023-05-21T10:30:31.531Z,98684.88
2023-05-21T10:33:00.265Z,98679.44
2023-05-21T10:35:27.788Z,98674.47
2023-05-21T10:37:57.295Z,98671.59
2023-05-21T10:40:25.628Z,98678.00
2023-05-21T10:43:31.909Z,98670.75
2023-05-21T10:46:22.494Z,98678.03
2023-05-21T10:49:07.817Z,98676.34
2023-05-21T10:52:12.094Z,98674.69
2023-05-21T10:54:53.040Z,98677.63
2023-05-21T10:57:28.900Z,98672.63
2023-05-21T10:59:58.452Z,98672.47
2023-05-21T11:02:27.693Z,98672.03
2023-05-21T11:05:02.060Z,98673.88
2023-05-21T11:07:57.328Z,98670.31
2023-05-21T11:10:41.111Z,98649.41
2023-05-21T11:13:08.166Z,98662.38
2023-05-21T11:15:58.158Z,98659.31
2023-05-21T11:18:31.483Z,98660.63
2023-05-21T11:21:04.685Z,98660.78
2023-05-21T11:24:05.196Z,98666.75
2023-05-21T11:26:55.391Z,98661.72
2023-05-21T11:29:33.875Z,98653.38
2023-05-21T11:32:05.972Z,98653.69
2023-05-21T11:34:41.268Z,98656.16
2023-05-21T11:37:33.482Z,98658.19
2023-05-21T11:40:23.087Z,98653.97
2023-05-21T11:42:53.009Z,98645.94
2023-05-21T11:45:21.842Z,98644.06
2023-05-21T11:47:50.150Z,98639.28
2023-05-21T11:50:18.181Z,98645.81
2023-05-21T11:52:45.909Z,98644.53
2023-05-21T11:55:15.792Z,98647.97
2023-05-21T11:57:48.237Z,98642.56
2023-05-21T12:00:16.805Z,98646.59
2023-05-21T12:02:51.079Z,98646.53
2023-05-21T12:05:18.235Z,98643.06
2023-05-21T12:07:50.462Z,98645.00
2023-05-21T12:10:20.892Z,98639.34
2023-05-21T12:12:55.638Z,98647.50
2023-05-21T12:15:24.975Z,98649.19
2023-05-21T12:17:53.282Z,98650.19
2023-05-21T12:20:21.113Z,98644.66
2023-05-21T12:22:49.765Z,98647.31
2023-05-21T12:25:23.505Z,98646.78
2023-05-21T12:27:58.411Z,98637.34
2023-05-21T12:30:26.633Z,98659.06
2023-05-21T12:32:53.732Z,98652.06
2023-05-21T12:35:24.671Z,98651.03
2023-05-21T12:37:52.430Z,98645.31
2023-05-21T12:40:20.310Z,98646.78
2023-05-21T12:42:47.544Z,98645.94
2023-05-21T12:45:15.074Z,98644.31
2023-05-21T12:47:42.172Z,98645.72
2023-05-21T12:50:14.241Z,98645.63
2023-05-21T12:52:43.283Z,98637.19
2023-05-21T12:55:13.901Z,98637.72
2023-05-21T12:57:40.942Z,98640.94
2023-05-21T13:00:09.116Z,98632.88
2023-05-21T13:02:44.761Z,98632.75
2023-05-21T13:05:20.023Z,98641.34
2023-05-21T13:07:48.012Z,98635.91
2023-05-21T13:10:16.839Z,98625.53
2023-05-21T13:12:44.689Z,98639.34
2023-05-21T13:15:12.234Z,98630.78
2023-05-21T13:17:39.306Z,98636.91
2023-05-21T13:20:09.612Z,98623.19
2023-05-21T13:22:45.416Z,98632.31
2023-05-21T13:25:16.001Z,98626.41
2023-05-21T13:27:43.669Z,98618.53
2023-05-21T13:30:13.833Z,98623.19
2023-05-21T13:32:42.409Z,98616.09
2023-05-21T13:35:10.424Z,98620.63
2023-05-21T13:37:37.783Z,98624.34
2023-05-21T13:40:09.181Z,98624.34
2023-05-21T13:42:37.969Z,98612.56
2023-05-21T13:45:10.993Z,98613.56
2023-05-21T13:47:40.182Z,98619.97
2023-05-21T13:50:08.923Z,98614.28
2023-05-21T13:52:36.439Z,98615.31
2023-05-21T13:55:04.052Z,98617.22
2023-05-21T13:57:31.266Z,98611.00
2023-05-21T13:59:59.374Z,98611.88
2023-05-21T14:02:26.561Z,98615.84
2023-05-21T14:04:54.146Z,98608.66
2023-05-21T14:07:22.450Z,98608.47
2023-05-21T14:09:50.231Z,98612.22
2023-05-21T14:12:17.419Z,98609.41
2023-05-21T14:14:44.467Z,98609.19
2023-05-21T14:17:11.399Z,98602.69
2023-05-21T14:19:38.381Z,98611.00
2023-05-21T14:22:05.684Z,98616.91
2023-05-21T14:24:32.702Z,98612.06
2023-05-21T14:26:59.653Z,98612.66
2023-05-21T14:29:26.639Z,98617.47
2023-05-21T14:31:53.805Z,98617.41
2023-05-21T14:34:20.866Z,98622.28
2023-05-21T14:36:47.888Z,98612.28
2023-05-21T14:39:14.926Z,98610.75
2023-05-21T14:41:41.944Z,98616.75
2023-05-21T14:44:09.024Z,98609.47
2023-05-21T14:46:37.085Z,98605.59
2023-05-21T14:49:04.236Z,98602.72
2023-05-21T14:51:31.900Z,98602.81
2023-05-21T14:53:59.060Z,98605.03
2023-05-21T14:56:27.957Z,98608.75
2023-05-21T14:58:55.289Z,98604.56
2023-05-21T15:01:22.288Z,98590.13
2023-05-21T15:03:49.450Z,98599.00
2023-05-21T15:06:16.632Z,98596.97
2023-05-21T15:08:43.605Z,98598.44
2023-05-21T15:11:10.710Z,98609.41
2023-05-21T15:13:38.530Z,98592.47
2023-05-21T15:16:05.879Z,98610.16
2023-05-21T15:18:32.938Z,98601.84
2023-05-21T15:21:00.109Z,98594.38
2023-05-21T15:23:27.186Z,98612.81
2023-05-21T15:25:54.156Z,98605.44
2023-05-21T15:28:21.176Z,98611.25
2023-05-21T15:30:48.120Z,98608.22
2023-05-21T15:33:15.076Z,98615.06
2023-05-21T15:35:42.507Z,98615.69
2023-05-21T15:38:09.886Z,98610.22
2023-05-21T15:40:40.332Z,98610.25
2023-05-21T15:43:07.322Z,98612.97
2023-05-21T15:45:34.332Z,98605.53
2023-05-21T15:48:01.470Z,98602.78
2023-05-21T15:50:28.412Z,98600.66
2023-05-21T15:52:55.381Z,98584.09
2023-05-21T15:55:22.322Z,98601.44
2023-05-21T15:57:49.286Z,98608.59
2023-05-21T16:00:16.667Z,98603.38
2023-05-21T16:02:43.988Z,98604.81
2023-05-21T16:05:11.030Z,98611.44
2023-05-21T16:07:38.374Z,98606.53
2023-05-21T16:10:06.676Z,98604.84
2023-05-21T16:12:33.614Z,98602.34
2023-05-21T16:15:00.594Z,98604.34
2023-05-21T16:17:27.676Z,98612.38
2023-05-21T16:19:54.645Z,98608.81
2023-05-21T16:22:23.397Z,98600.78
2023-05-21T16:24:50.355Z,98606.38
2023-05-21T16:27:17.439Z,98616.00
2023-05-21T16:29:44.936Z,98601.13
2023-05-21T16:32:14.235Z,98601.38
2023-05-21T16:34:41.438Z,98606.09
2023-05-21T16:37:10.007Z,98606.91
2023-05-21T16:39:37.145Z,98604.13
2023-05-21T16:42:04.181Z,98610.78
2023-05-21T16:44:32.363Z,98612.69
2023-05-21T16:47:00.278Z,98606.09
2023-05-21T16:49:28.065Z,98601.69
2023-05-21T16:51:55.125Z,98599.25
2023-05-21T16:54:22.322Z,98607.75
2023-05-21T16:56:51.863Z,98608.59
2023-05-21T16:59:18.825Z,98608.34
2023-05-21T17:01:45.878Z,98607.19
2023-05-21T17:04:12.847Z,98606.41
2023-05-21T17:06:39.850Z,98611.06
2023-05-21T17:09:07.017Z,98614.94
2023-05-21T17:11:35.245Z,98620.44
2023-05-21T17:14:02.192Z,98617.41
2023-05-21T17:16:29.162Z,98619.91
2023-05-21T17:18:56.194Z,98609.13
2023-05-21T17:21:23.269Z,98614.59
2023-05-21T17:23:50.170Z,98616.22
2023-05-21T17:26:17.110Z,98617.31
2023-05-21T17:28:44.041Z,98609.59
2023-05-21T17:31:11.216Z,98615.09
2023-05-21T17:33:38.216Z,98616.47
2023-05-21T17:36:05.420Z,98610.38
2023-05-21T17:38:32.881Z,98608.72
2023-05-21T17:40:59.882Z,98616.28
2023-05-21T17:43:27.926Z,98603.03
2023-05-21T17:45:55.001Z,98624.69
2023-05-21T17:48:22.616Z,98625.53
2023-05-21T17:50:49.738Z,98621.28
2023-05-21T17:53:16.832Z,98618.00
2023-05-21T17:55:44.032Z,98622.66
2023-05-21T17:58:11.042Z,98620.94
2023-05-21T18:00:38.114Z,98615.13
2023-05-21T18:03:05.259Z,98619.06
2023-05-21T18:05:32.258Z,98616.31
2023-05-21T18:08:01.540Z,98617.31
2023-05-21T18:10:28.920Z,98629.84
2023-05-21T18:12:55.995Z,98617.16
2023-05-21T18:15:23.094Z,98634.13
2023-05-21T18:17:50.125Z,98623.88
2023-05-21T18:20:17.365Z,98623.41
2023-05-21T18:22:45.223Z,98644.38
2023-05-21T18:25:12.356Z,98631.88
2023-05-21T18:27:39.327Z,98637.66
2023-05-21T18:30:07.404Z,98637.75
2023-05-21T18:32:34.945Z,98642.00
2023-05-21T18:35:02.555Z,98648.09
2023-05-21T18:37:29.763Z,98641.91
2023-05-21T18:39:56.739Z,98636.94
2023-05-21T18:42:23.775Z,98643.69
2023-05-21T18:44:51.473Z,98645.19
2023-05-21T18:47:18.523Z,98625.44
2023-05-21T18:49:45.604Z,98647.66
2023-05-21T18:52:12.670Z,98638.13
2023-05-21T18:54:39.639Z,98642.31
2023-05-21T18:57:06.839Z,98635.16
2023-05-21T18:59:33.892Z,98644.28
2023-05-21T19:02:01.081Z,98650.75
2023-05-21T19:04:28.956Z,98645.09
2023-05-21T19:06:56.185Z,98646.91
2023-05-21T19:09:23.113Z,98644.59
2023-05-21T19:11:50.617Z,98638.19
2023-05-21T19:14:17.606Z,98649.03
2023-05-21T19:16:44.594Z,98643.34
2023-05-21T19:19:11.685Z,98646.97
2023-05-21T19:21:39.369Z,98652.81
2023-05-21T19:24:06.899Z,98652.00
2023-05-21T19:26:33.948Z,98643.03
2023-05-21T19:29:01.010Z,98652.78
2023-05-21T19:31:28.440Z,98646.97
2023-05-21T19:33:55.599Z,98653.63
2023-05-21T19:36:22.676Z,98650.91
2023-05-21T19:38:50.641Z,98656.63
2023-05-21T19:41:18.816Z,98655.44
2023-05-21T19:43:46.459Z,98651.31
2023-05-21T19:46:15.871Z,98648.81
2023-05-21T19:48:45.225Z,98648.81
2023-05-21T19:51:12.184Z,98654.25
2023-05-21T19:53:39.204Z,98651.41
2023-05-21T19:56:06.390Z,98654.16
2023-05-21T19:58:33.440Z,98664.16
2023-05-21T20:01:00.531Z,98653.34
2023-05-21T20:03:28.653Z,98655.44
2023-05-21T20:05:55.746Z,98658.16
2023-05-21T20:08:23.001Z,98658.66
2023-05-21T20:10:51.921Z,98660.69
2023-05-21T20:13:19.546Z,98652.84
2023-05-21T20:15:48.189Z,98651.28
2023-05-21T20:18:15.700Z,98656.50
2023-05-21T20:20:43.532Z,98649.63
2023-05-21T20:23:10.706Z,98643.91
2023-05-21T20:25:37.655Z,98644.97
2023-05-21T20:28:05.644Z,98649.84
2023-05-21T20:30:34.804Z,98656.84
2023-05-21T20:33:03.202Z,98658.25
2023-05-21T20:35:30.553Z,98649.22
2023-05-21T20:37:57.759Z,98654.31
2023-05-21T20:40:24.813Z,98658.31
2023-05-21T20:42:53.675Z,98654.78
2023-05-21T20:45:21.261Z,98653.44
2023-05-21T20:47:50.190Z,98659.38
2023-05-21T20:50:21.875Z,98652.59
2023-05-21T20:52:48.812Z,98651.88
2023-05-21T20:55:15.809Z,98656.50
2023-05-21T20:57:42.800Z,98653.75
2023-05-21T21:00:13.586Z,98648.31
2023-05-21T21:02:40.626Z,98654.44
2023-05-21T21:05:10.744Z,98664.50
2023-05-21T21:07:38.082Z,98642.34
2023-05-21T21:10:05.816Z,98656.56
2023-05-21T21:12:32.748Z,98662.25
2023-05-21T21:14:59.659Z,98656.31
2023-05-21T21:17:26.693Z,98657.22
2023-05-21T21:19:53.686Z,98656.44
2023-05-21T21:22:21.189Z,98650.34
2023-05-21T21:24:48.305Z,98653.28
2023-05-21T21:27:15.266Z,98651.63
2023-05-21T21:29:42.240Z,98652.16
2023-05-21T21:32:09.543Z,98653.00
2023-05-21T21:34:36.518Z,98662.00
2023-05-21T21:37:04.900Z,98648.59
2023-05-21T21:39:31.845Z,98656.53
2023-05-21T21:41:58.969Z,98651.78
2023-05-21T21:44:25.870Z,98655.25
2023-05-21T21:46:52.836Z,98651.56
2023-05-21T21:49:19.802Z,98654.94
2023-05-21T21:51:46.881Z,98654.63
2023-05-21T21:54:13.820Z,98655.53
2023-05-21T21:56:40.935Z,98651.00
2023-05-21T21:59:07.906Z,98656.91
2023-05-21T22:01:36.045Z,98648.78
2023-05-21T22:04:03.151Z,98644.09
2023-05-21T22:06:30.227Z,98645.16
2023-05-21T22:08:57.287Z,98643.72
2023-05-21T22:11:24.293Z,98646.66
2023-05-21T22:13:51.232Z,98641.50
2023-05-21T22:16:18.169Z,98603.25
2023-05-21T22:18:46.342Z,98656.72
2023-05-21T22:21:14.582Z,98659.91
2023-05-21T22:23:41.702Z,98662.63
2023-05-21T22:26:09.784Z,98656.72
2023-05-21T22:28:36.783Z,98648.56
2023-05-21T22:31:03.903Z,98648.25
2023-05-21T22:33:31.519Z,98649.13
2023-05-21T22:35:58.476Z,98645.22
2023-05-21T22:38:26.063Z,98646.13
2023-05-21T22:40:53.059Z,98635.91
2023-05-21T22:43:20.097Z,98636.19
2023-05-21T22:45:47.252Z,98643.34
2023-05-21T22:48:14.513Z,98637.50
2023-05-21T22:50:41.698Z,98641.25
2023-05-21T22:53:08.815Z,98648.75
2023-05-21T22:55:35.793Z,98642.75
2023-05-21T22:58:02.867Z,98631.31
2023-05-21T23:00:29.912Z,98630.66
2023-05-21T23:02:56.929Z,98644.81
2023-05-21T23:05:23.970Z,98639.22
2023-05-21T23:07:50.916Z,98639.66
2023-05-21T23:10:17.931Z,98632.75
2023-05-21T23:12:44.834Z,98640.56
2023-05-21T23:15:12.075Z,98637.59
2023-05-21T23:17:39.130Z,98625.94
2023-05-21T23:20:07.586Z,98631.81
2023-05-21T23:22:35.123Z,98639.31
2023-05-21T23:25:02.273Z,98627.22
2023-05-21T23:27:29.509Z,98635.81
2023-05-21T23:29:56.713Z,98627.72
2023-05-21T23:32:23.948Z,98623.97
2023-05-21T23:34:51.085Z,98624.59
2023-05-21T23:37:18.254Z,98621.88
2023-05-21T23:39:49.836Z,98619.38
2023-05-21T23:42:17.758Z,98622.94
2023-05-21T23:44:45.088Z,98634.03
2023-05-21T23:47:12.013Z,98624.88
2023-05-21T23:49:39.675Z,98610.88
2023-05-21T23:52:07.224Z,98617.16
2023-05-21T23:54:34.251Z,98610.72
2023-05-21T23:57:02.306Z,98624.28
2023-05-21T23:59:29.557Z,98624.47
